Time;durP1;ratioP1;P1;durP2;ratioP2;P2;SDS_P1;SDS_P2;PMS_P1;PMS_P2;Temp;Humidity;BMP_temperature;BMP_pressure;BME280_temperature;BME280_humidity;BME280_pressure;Samples;Min_cycle;Max_cycle;Signal;HPM_P1;HPM_P2
2022/12/15 05:31:57;;;;;;;1999.90;999.90;;;-1.40;99.90;;;;;;5005518;28;20098;-80
2022/12/15 05:34:25;;;;;;;1999.90;999.90;;;-1.40;99.90;;;;;;5003959;28;20035;-79
2022/12/15 05:36:55;;;;;;;1999.90;999.90;;;-1.40;99.90;;;;;;5001831;28;20042;-81
2022/12/15 05:39:22;;;;;;;1999.90;999.90;;;-1.40;99.90;;;;;;5003259;28;20118;-81
2022/12/15 05:41:48;;;;;;;1999.90;999.90;;;-1.40;99.90;;;;;;5002340;28;20034;-81
2022/12/15 05:44:14;;;;;;;1999.90;999.90;;;-1.40;99.90;;;;;;5002775;28;20030;-81
2022/12/15 05:46:40;;;;;;;1999.90;999.90;;;-1.40;99.90;;;;;;5002583;28;20050;-81
2022/12/15 05:49:07;;;;;;;1999.90;999.90;;;-1.40;99.90;;;;;;5009578;28;20042;-81
2022/12/15 05:51:35;;;;;;;1999.90;999.90;;;-1.40;99.90;;;;;;5012678;28;20038;-81
2022/12/15 05:54:01;;;;;;;1999.90;999.90;;;-1.40;99.90;;;;;;5003685;28;20106;-81
2022/12/15 05:56:27;;;;;;;1999.90;999.90;;;-1.40;99.90;;;;;;5000511;28;20451;-81
2022/12/15 05:58:54;;;;;;;1999.90;999.90;;;-1.40;99.90;;;;;;4998159;28;20102;-81
2022/12/15 06:01:19;;;;;;;1999.90;999.90;;;-1.40;99.90;;;;;;4997485;28;20058;-82
2022/12/15 06:03:45;;;;;;;1999.90;999.90;;;-1.50;99.90;;;;;;4997192;28;20060;-81
2022/12/15 06:06:12;;;;;;;1999.90;999.90;;;-1.50;99.90;;;;;;4997317;28;20027;-81
2022/12/15 06:08:40;;;;;;;1999.90;999.90;;;-1.50;99.90;;;;;;4996849;28;20133;-82
2022/12/15 06:11:06;;;;;;;1999.90;999.90;;;-1.50;99.90;;;;;;4995121;28;20031;-81
2022/12/15 06:13:34;;;;;;;1999.90;999.90;;;-1.50;99.90;;;;;;5000355;28;20043;-81
2022/12/15 06:16:00;;;;;;;1999.90;999.90;;;-1.50;99.90;;;;;;5001515;28;20031;-80
2022/12/15 06:18:29;;;;;;;1999.90;999.90;;;-1.50;99.90;;;;;;5002338;28;20170;-81
2022/12/15 06:21:04;;;;;;;1999.90;999.90;;;-1.40;99.90;;;;;;4998991;28;20031;-82
2022/12/15 06:23:31;;;;;;;1999.90;999.90;;;-1.40;99.90;;;;;;4999077;28;20660;-81
2022/12/15 06:25:58;;;;;;;1999.90;999.90;;;-1.40;99.90;;;;;;4998414;28;20041;-81
2022/12/15 06:28:24;;;;;;;1999.90;999.90;;;-1.40;99.90;;;;;;4997414;28;20042;-80
2022/12/15 06:30:52;;;;;;;1999.90;999.90;;;-1.40;99.90;;;;;;4997524;28;20070;-81
2022/12/15 06:33:18;;;;;;;1999.90;999.90;;;-1.40;99.90;;;;;;4997378;28;20046;-81
2022/12/15 06:35:44;;;;;;;1999.90;999.90;;;-1.40;99.90;;;;;;4996439;28;20170;-82
2022/12/15 06:38:09;;;;;;;1999.90;999.90;;;-1.50;99.90;;;;;;4983063;28;20059;-81
2022/12/15 06:40:35;;;;;;;1999.90;999.90;;;-1.50;99.90;;;;;;4995945;28;20110;-81
2022/12/15 06:43:00;;;;;;;1999.90;999.90;;;-1.40;99.90;;;;;;4996213;28;20484;-82
2022/12/15 06:45:26;;;;;;;1999.90;999.90;;;-1.40;99.90;;;;;;4996518;28;20040;-81
2022/12/15 06:47:52;;;;;;;1999.90;999.90;;;-1.40;99.90;;;;;;4998084;28;20404;-81
2022/12/15 06:50:18;;;;;;;1999.90;999.90;;;-1.40;99.90;;;;;;4997156;28;20130;-81
2022/12/15 06:52:44;;;;;;;1999.90;999.90;;;-1.40;99.90;;;;;;4997791;28;20048;-80
2022/12/15 06:55:09;;;;;;;1999.90;999.90;;;-1.30;99.90;;;;;;4997769;28;20042;-81
2022/12/15 06:57:35;;;;;;;1999.90;999.90;;;-1.30;99.90;;;;;;4999187;28;20047;-81
2022/12/15 07:00:01;;;;;;;1999.90;999.90;;;-1.30;99.90;;;;;;4997436;28;20046;-81
2022/12/15 07:02:28;;;;;;;1999.90;999.90;;;-1.30;99.90;;;;;;4998511;28;20063;-81
2022/12/15 07:04:54;;;;;;;1999.90;999.90;;;-1.30;99.90;;;;;;5017402;28;20026;-81
2022/12/15 07:07:20;;;;;;;1999.90;999.90;;;-1.30;99.90;;;;;;5016983;28;20402;-80
2022/12/15 07:09:45;;;;;;;1999.90;999.90;;;-1.30;99.90;;;;;;5018204;28;20030;-80
2022/12/15 07:12:11;;;;;;;1999.90;999.90;;;-1.30;99.90;;;;;;5018148;28;20026;-80
2022/12/15 07:14:37;;;;;;;1999.90;999.90;;;-1.30;99.90;;;;;;5019049;28;20089;-80
2022/12/15 07:17:02;;;;;;;1999.90;999.90;;;-1.30;99.90;;;;;;5018673;28;20562;-79
2022/12/15 07:19:28;;;;;;;1999.90;999.90;;;-1.40;99.90;;;;;;5018336;28;20460;-79
2022/12/15 07:21:56;;;;;;;1999.90;999.90;;;-1.30;99.90;;;;;;5023708;28;20030;-81
2022/12/15 07:24:22;;;;;;;1999.90;999.90;;;-1.30;99.90;;;;;;5026743;28;20027;-80
2022/12/15 07:26:47;;;;;;;1999.90;999.90;;;-1.30;99.90;;;;;;5027410;28;20038;-81
2022/12/15 07:29:13;;;;;;;1999.90;999.90;;;-1.30;99.90;;;;;;5023534;28;20038;-81
2022/12/15 07:31:39;;;;;;;1999.90;999.90;;;-1.20;99.90;;;;;;5025273;28;20480;-80
2022/12/15 07:34:04;;;;;;;1999.90;999.90;;;-1.20;99.90;;;;;;5021901;28;20034;-81
2022/12/15 07:36:30;;;;;;;1999.90;999.90;;;-1.30;99.90;;;;;;5024400;28;20398;-80
2022/12/15 07:39:00;;;;;;;1999.90;999.90;;;-1.30;99.90;;;;;;5021874;28;20111;-81
2022/12/15 07:41:26;;;;;;;1999.90;999.90;;;-1.40;99.90;;;;;;5023253;28;20022;-81
2022/12/15 07:43:52;;;;;;;1999.90;999.90;;;-1.30;99.90;;;;;;5023024;28;20038;-80
2022/12/15 07:46:18;;;;;;;1999.90;999.90;;;-1.30;99.90;;;;;;5023348;28;20034;-81
2022/12/15 07:48:44;;;;;;;1999.90;999.90;;;-1.30;99.90;;;;;;5021738;28;20034;-79
2022/12/15 07:51:10;;;;;;;1999.90;999.90;;;-1.30;99.90;;;;;;5009074;28;20063;-84
2022/12/15 07:53:36;;;;;;;1999.90;999.90;;;-1.30;99.90;;;;;;5005539;28;20038;-85
2022/12/15 07:56:05;;;;;;;1999.90;999.90;;;-1.20;99.90;;;;;;5001857;28;20031;-82
2022/12/15 07:58:34;;;;;;;1999.90;999.90;;;-1.10;99.90;;;;;;5000310;28;20062;-81
2022/12/15 08:01:01;;;;;;;1999.90;999.90;;;-1.10;99.90;;;;;;4998428;28;20046;-80
2022/12/15 08:03:28;;;;;;;1999.90;999.90;;;-1.10;99.90;;;;;;4998557;28;20059;-80
2022/12/15 08:05:53;;;;;;;1999.90;999.90;;;-1.10;99.90;;;;;;4999938;28;20200;-82
2022/12/15 08:08:20;;;;;;;1999.90;999.90;;;-1.00;99.90;;;;;;5000869;28;20544;-82
2022/12/15 08:10:45;;;;;;;1999.90;999.90;;;-0.90;99.90;;;;;;5000300;28;20041;-81
2022/12/15 08:13:13;;;;;;;1999.90;999.90;;;-0.80;99.90;;;;;;5002861;28;20041;-82
2022/12/15 08:15:39;;;;;;;1999.90;999.90;;;-0.80;99.90;;;;;;5001972;28;20043;-81
2022/12/15 08:18:06;;;;;;;1999.90;999.90;;;-0.70;99.90;;;;;;5018420;28;20519;-82
2022/12/15 08:20:32;;;;;;;1999.90;999.90;;;-0.60;99.90;;;;;;5003449;28;20046;-79
2022/12/15 08:22:58;;;;;;;1999.90;999.90;;;-0.60;99.90;;;;;;4990361;28;20039;-82
2022/12/15 08:25:27;;;;;;;1999.90;999.90;;;-0.50;99.90;;;;;;5006005;28;20556;-83
2022/12/15 08:27:54;;;;;;;1999.90;999.90;;;-0.50;99.90;;;;;;5008400;28;20292;-83
2022/12/15 08:30:20;;;;;;;1999.90;999.90;;;-0.40;99.90;;;;;;5006451;28;20611;-81
2022/12/15 08:32:46;;;;;;;1999.90;999.90;;;-0.40;99.90;;;;;;5004812;28;20035;-82
2022/12/15 08:35:13;;;;;;;1999.90;999.90;;;-0.40;99.90;;;;;;5004524;28;20822;-80
2022/12/15 08:37:38;;;;;;;1999.90;999.90;;;-0.40;99.90;;;;;;5002245;28;20067;-80
2022/12/15 08:40:05;;;;;;;1999.90;999.90;;;-0.30;99.90;;;;;;5003345;28;20060;-81
2022/12/15 08:42:35;;;;;;;1999.90;999.90;;;-0.30;99.90;;;;;;5006113;28;20117;-83
2022/12/15 08:45:01;;;;;;;1999.90;999.90;;;-0.30;99.90;;;;;;5003345;28;20035;-82
2022/12/15 08:47:27;;;;;;;1999.90;999.90;;;-0.30;99.90;;;;;;5004075;28;20496;-82
2022/12/15 08:49:55;;;;;;;1999.90;999.90;;;-0.30;99.90;;;;;;5003369;28;20038;-82
2022/12/15 08:52:21;;;;;;;1999.90;999.90;;;-0.30;99.90;;;;;;5003693;28;20042;-82
2022/12/15 08:54:48;;;;;;;1999.90;999.90;;;-0.40;99.90;;;;;;5002296;28;20035;-83
2022/12/15 08:57:14;;;;;;;1999.90;999.90;;;-0.30;99.90;;;;;;5002940;28;20129;-82
2022/12/15 08:59:39;;;;;;;1999.90;999.90;;;-0.20;99.90;;;;;;5005279;28;20058;-83
2022/12/15 09:02:05;;;;;;;1999.90;999.90;;;-0.20;99.90;;;;;;5004184;28;20039;-82
2022/12/15 09:04:31;;;;;;;1999.90;999.90;;;-0.20;99.90;;;;;;5006545;28;20031;-85
2022/12/15 09:06:57;;;;;;;1999.90;999.90;;;-0.20;99.90;;;;;;5007469;28;20122;-86
2022/12/15 09:09:22;;;;;;;1999.90;999.90;;;-0.10;99.90;;;;;;5021174;28;20086;-83
2022/12/15 09:11:48;;;;;;;1999.90;999.90;;;0.00;99.90;;;;;;5021124;28;20039;-81
2022/12/15 09:14:16;;;;;;;1999.90;999.90;;;0.00;99.90;;;;;;5008639;28;20042;-83
2022/12/15 09:16:41;;;;;;;1999.90;999.90;;;-0.10;99.90;;;;;;5016532;28;20034;-84
2022/12/15 09:19:09;;;;;;;1999.90;999.90;;;0.00;99.90;;;;;;5017166;28;20034;-83
2022/12/15 09:21:35;;;;;;;1999.90;999.90;;;0.00;99.90;;;;;;5010182;28;20141;-83
2022/12/15 09:24:02;;;;;;;1999.90;999.90;;;0.10;99.90;;;;;;5000693;28;20019;-84
2022/12/15 09:26:31;;;;;;;1999.90;999.90;;;0.20;99.90;;;;;;4999597;28;20039;-83
2022/12/15 09:28:56;;;;;;;1999.90;999.90;;;0.10;99.90;;;;;;4999903;28;20479;-81
2022/12/15 09:31:35;;;;;;;1999.90;999.90;;;0.00;99.90;;;;;;4999118;28;20039;-81
2022/12/15 09:34:01;;;;;;;1999.90;999.90;;;-0.10;99.90;;;;;;5000138;28;20031;-82
2022/12/15 09:36:27;;;;;;;1999.90;999.90;;;-0.10;99.90;;;;;;4999033;28;20548;-81
2022/12/15 09:38:52;;;;;;;1999.90;999.90;;;-0.20;99.90;;;;;;5000380;28;20505;-84
2022/12/15 09:41:30;;;;;;;1999.90;999.90;;;-0.20;99.90;;;;;;4998891;28;20031;-84
2022/12/15 09:44:14;;;;;;;1999.90;999.90;;;-0.30;99.90;;;;;;5000020;28;20043;-83
2022/12/15 09:47:07;;;;;;;1999.90;999.90;;;-0.40;99.90;;;;;;4990804;28;20039;-82
2022/12/15 09:49:44;;;;;;;1999.90;999.90;;;-0.50;99.90;;;;;;4999570;28;20062;-83
2022/12/15 09:52:21;;;;;;;1999.90;999.90;;;-0.60;99.90;;;;;;4997543;28;20055;-83
2022/12/15 09:54:46;;;;;;;1999.90;999.90;;;-0.70;99.90;;;;;;5000169;28;20039;-84
2022/12/15 09:57:25;;;;;;;1999.90;999.90;;;-0.80;99.90;;;;;;4999572;28;20042;-82
2022/12/15 10:00:06;;;;;;;1999.90;999.90;;;-0.80;99.90;;;;;;4997060;28;20732;-80
2022/12/15 10:02:58;;;;;;;1999.90;999.90;;;-0.90;99.90;;;;;;4998311;28;20037;-81
2022/12/15 10:05:42;;;;;;;1999.90;999.90;;;-0.80;99.90;;;;;;4998916;28;20489;-81
2022/12/15 10:08:09;;;;;;;1999.90;999.90;;;-0.80;99.90;;;;;;4998817;28;20456;-81
2022/12/15 10:10:54;;;;;;;1999.90;999.90;;;-0.70;99.90;;;;;;4997634;28;20034;-82
2022/12/15 10:13:56;;;;;;;1999.90;999.90;;;-0.70;99.90;;;;;;4997505;28;20063;-81
2022/12/15 10:16:54;;;;;;;1999.90;999.90;;;-0.60;99.90;;;;;;4998219;28;20073;-80
2022/12/15 10:19:32;;;;;;;1999.90;999.90;;;-0.60;99.90;;;;;;4996731;28;20046;-78
2022/12/15 10:21:58;;;;;;;1999.90;999.90;;;-0.80;99.90;;;;;;4996816;28;20057;-81
2022/12/15 10:24:27;;;;;;;1999.90;999.90;;;-0.80;99.90;;;;;;4997186;28;20042;-81
2022/12/15 10:27:12;;;;;;;1999.90;999.90;;;-0.80;99.90;;;;;;5003282;28;20026;-81
2022/12/15 10:29:43;;;;;;;1999.90;999.90;;;-0.90;99.90;;;;;;5004143;28;20034;-81
2022/12/15 10:32:26;;;;;;;1999.90;999.90;;;-0.90;99.90;;;;;;5006903;28;20031;-81
2022/12/15 10:34:52;;;;;;;1999.90;999.90;;;-0.90;99.90;;;;;;5004341;28;20087;-81
2022/12/15 10:37:19;;;;;;;1999.90;999.90;;;-0.80;99.90;;;;;;4998907;28;20449;-81
2022/12/15 10:39:48;;;;;;;1999.90;999.90;;;-0.80;99.90;;;;;;4999191;28;20481;-81
2022/12/15 10:42:19;;;;;;;1999.90;999.90;;;-0.90;99.90;;;;;;4997106;28;20034;-80
2022/12/15 10:44:48;;;;;;;1999.90;999.90;;;-0.80;99.90;;;;;;4996139;28;20059;-81
2022/12/15 10:47:18;;;;;;;1999.90;999.90;;;-0.80;99.90;;;;;;4996389;28;20068;-81
2022/12/15 10:49:44;;;;;;;1999.90;999.90;;;-0.80;99.90;;;;;;4997494;28;20552;-80
2022/12/15 10:52:22;;;;;;;1999.90;999.90;;;-0.80;99.90;;;;;;4997199;28;20201;-81
2022/12/15 10:54:50;;;;;;;1999.90;999.90;;;-0.70;99.90;;;;;;4997591;28;20118;-82
2022/12/15 10:57:28;;;;;;;1999.90;999.90;;;-0.60;99.90;;;;;;4984160;28;20043;-82
2022/12/15 10:59:59;;;;;;;1999.90;999.90;;;-0.50;99.90;;;;;;4985896;28;20027;-82
2022/12/15 11:02:35;;;;;;;1999.90;999.90;;;-0.50;99.90;;;;;;4978591;28;20520;-82
2022/12/15 11:05:05;;;;;;;1999.90;999.90;;;-0.20;99.90;;;;;;4978988;28;20537;-82
2022/12/15 11:07:39;;;;;;;1999.90;999.90;;;0.00;99.90;;;;;;4989423;28;20386;-82
2022/12/15 11:13:16;;;;;;;1999.90;999.90;;;0.40;99.90;;;;;;4979944;28;20522;-82
2022/12/15 11:15:47;;;;;;;1999.90;999.90;;;0.40;99.90;;;;;;4987754;28;20118;-81
2022/12/15 11:18:31;;;;;;;1999.90;999.90;;;0.70;99.90;;;;;;4990315;28;20053;-81
2022/12/15 11:21:11;;;;;;;1999.90;999.90;;;0.70;99.90;;;;;;4990847;28;20110;-81
2022/12/15 11:24:02;;;;;;;1999.90;999.90;;;0.50;99.90;;;;;;5002596;28;20042;-81
2022/12/15 11:26:35;;;;;;;1999.90;999.90;;;0.50;99.90;;;;;;5001435;28;20058;-81
2022/12/15 11:29:24;;;;;;;1999.90;999.90;;;0.60;99.90;;;;;;4990729;28;20023;-81
2022/12/15 11:31:51;;;;;;;1999.90;999.90;;;0.60;99.90;;;;;;4996224;28;20891;-81
2022/12/15 11:34:20;;;;;;;1999.90;999.90;;;0.70;99.90;;;;;;4990821;28;20035;-81
2022/12/15 11:37:16;;;;;;;1999.90;999.90;;;1.00;99.90;;;;;;4987478;28;20551;-81
2022/12/15 11:40:10;;;;;;;1999.90;999.90;;;1.00;99.90;;;;;;4981590;28;20047;-80
2022/12/15 11:42:51;;;;;;;1999.90;999.90;;;1.20;99.90;;;;;;4980063;28;20046;-80
2022/12/15 11:45:28;;;;;;;1999.90;999.90;;;1.30;99.90;;;;;;4979448;28;20031;-80
2022/12/15 11:48:02;;;;;;;1999.90;999.90;;;1.30;99.90;;;;;;4979447;28;20523;-80
2022/12/15 11:50:50;;;;;;;1999.90;999.90;;;1.40;99.90;;;;;;4980389;28;20106;-80
2022/12/15 11:53:25;;;;;;;1999.90;999.90;;;1.40;99.90;;;;;;4979484;28;20046;-78
2022/12/15 11:56:01;;;;;;;1999.90;999.90;;;1.20;99.90;;;;;;4978713;28;20035;-78
2022/12/15 11:58:42;;;;;;;1999.90;999.90;;;1.20;99.90;;;;;;4978692;28;20039;-80
2022/12/15 12:01:22;;;;;;;1999.90;999.90;;;1.00;99.90;;;;;;4979240;28;20493;-80
2022/12/15 12:04:06;;;;;;;1999.90;999.90;;;1.00;99.90;;;;;;4977459;28;20035;-78
2022/12/15 12:06:53;;;;;;;1999.90;999.90;;;1.10;99.90;;;;;;4978293;28;20135;-79
2022/12/15 12:09:33;;;;;;;1999.90;999.90;;;1.10;99.90;;;;;;4958114;28;20532;-79
2022/12/15 12:12:17;;;;;;;1999.90;999.90;;;1.10;99.90;;;;;;4980086;28;20043;-78
2022/12/15 12:15:03;;;;;;;1999.90;999.90;;;0.90;99.90;;;;;;4979907;28;20035;-78
2022/12/15 12:17:54;;;;;;;1999.90;999.90;;;0.90;99.90;;;;;;4981343;28;20039;-78
2022/12/15 12:20:21;;;;;;;1999.90;999.90;;;0.90;99.90;;;;;;4982201;28;20090;-79
2022/12/15 12:23:08;;;;;;;1999.90;999.90;;;0.80;99.90;;;;;;4982635;28;20798;-79
2022/12/15 12:25:55;;;;;;;1999.90;999.90;;;0.90;99.90;;;;;;4979973;28;20031;-78
2022/12/15 12:28:27;;;;;;;1999.90;999.90;;;0.80;99.90;;;;;;5011840;28;20022;-77
2022/12/15 12:30:55;;;;;;;1999.90;999.90;;;0.80;99.90;;;;;;5017570;28;20075;-76
2022/12/15 12:33:41;;;;;;;1999.90;999.90;;;0.90;99.90;;;;;;4990953;28;20099;-80
2022/12/15 12:36:13;;;;;;;1999.90;999.90;;;1.00;99.90;;;;;;4979025;28;20111;-79
2022/12/15 12:38:52;;;;;;;1999.90;999.90;;;1.00;99.90;;;;;;4978111;28;20126;-78
2022/12/15 12:41:23;;;;;;;1999.90;999.90;;;1.00;99.90;;;;;;4995177;28;20030;-82
2022/12/15 12:43:54;;;;;;;1999.90;999.90;;;0.90;99.90;;;;;;4996945;28;20046;-77
2022/12/15 12:46:29;;;;;;;1999.90;999.90;;;1.00;99.90;;;;;;4997273;28;20031;-78
2022/12/15 12:49:30;;;;;;;1999.90;999.90;;;1.00;99.90;;;;;;4995369;28;20030;-78
2022/12/15 12:52:00;;;;;;;1999.90;999.90;;;1.00;99.90;;;;;;4996949;28;20031;-78
2022/12/15 12:54:34;;;;;;;1999.90;999.90;;;1.10;99.90;;;;;;4998499;28;20500;-77
2022/12/15 12:57:09;;;;;;;1999.90;999.90;;;1.10;99.90;;;;;;4997072;28;20047;-78
2022/12/15 12:59:42;;;;;;;1999.90;999.90;;;1.30;99.90;;;;;;4995623;28;20038;-81
2022/12/15 13:02:14;;;;;;;1999.90;999.90;;;1.50;99.90;;;;;;4976972;28;20039;-81
2022/12/15 13:04:58;;;;;;;1999.90;999.90;;;1.60;99.90;;;;;;4975711;28;21189;-81
2022/12/15 13:07:39;;;;;;;1999.90;999.90;;;1.60;99.90;;;;;;4976891;28;20043;-81
2022/12/15 13:10:08;;;;;;;1999.90;999.90;;;1.70;99.90;;;;;;4990577;28;20440;-81
2022/12/15 13:12:53;;;;;;;1999.90;999.90;;;1.70;99.90;;;;;;4978949;28;20042;-81
2022/12/15 13:15:36;;;;;;;1999.90;999.90;;;1.70;99.90;;;;;;4984866;28;20039;-81
2022/12/15 13:18:16;;;;;;;1999.90;999.90;;;1.60;99.90;;;;;;4996766;28;20042;-80
2022/12/15 13:20:43;;;;;;;1999.90;999.90;;;1.50;99.90;;;;;;4994959;28;20034;-81
2022/12/15 13:23:18;;;;;;;1999.90;999.90;;;1.50;99.90;;;;;;4987802;28;20043;-81
2022/12/15 13:25:56;;;;;;;1999.90;999.90;;;1.40;99.90;;;;;;4997255;28;20464;-81
2022/12/15 13:28:34;;;;;;;1999.90;999.90;;;1.40;99.90;;;;;;4990137;28;20039;-81
2022/12/15 13:31:19;;;;;;;1999.90;999.90;;;1.40;99.90;;;;;;4977842;28;20118;-81
2022/12/15 13:33:48;;;;;;;1999.90;999.90;;;1.40;99.90;;;;;;4978580;28;20027;-81
2022/12/15 13:36:35;;;;;;;1999.90;999.90;;;1.30;99.90;;;;;;4986236;28;20036;-81
2022/12/15 13:39:02;;;;;;;1999.90;999.90;;;1.40;99.90;;;;;;4987000;28;20043;-81
2022/12/15 13:41:27;;;;;;;1999.90;999.90;;;1.40;99.90;;;;;;4992783;28;20030;-81
2022/12/15 13:43:53;;;;;;;1999.90;999.90;;;1.40;99.90;;;;;;4998883;28;20051;-81
2022/12/15 13:46:23;;;;;;;1999.90;999.90;;;1.30;99.90;;;;;;4997402;28;20082;-82
2022/12/15 13:49:12;;;;;;;1999.90;999.90;;;1.30;99.90;;;;;;4999200;28;20035;-81
2022/12/15 13:51:45;;;;;;;1999.90;999.90;;;1.20;99.90;;;;;;4998763;28;20027;-81
2022/12/15 13:54:21;;;;;;;1999.90;999.90;;;1.30;99.90;;;;;;4998855;28;20043;-82
2022/12/15 13:57:05;;;;;;;1999.90;999.90;;;1.40;99.90;;;;;;4997504;28;20039;-81
2022/12/15 13:59:49;;;;;;;1999.90;999.90;;;1.50;99.90;;;;;;4998401;28;20027;-81
2022/12/15 14:02:25;;;;;;;1999.90;999.90;;;1.30;99.90;;;;;;4983176;28;20039;-82
2022/12/15 14:05:13;;;;;;;1999.90;999.90;;;1.30;99.90;;;;;;4978294;28;20031;-81
2022/12/15 14:07:42;;;;;;;1999.90;999.90;;;1.10;99.90;;;;;;4978590;28;20090;-81
2022/12/15 14:10:36;;;;;;;1999.90;999.90;;;1.10;99.90;;;;;;4979213;28;20031;-81
2022/12/15 14:13:16;;;;;;;1999.90;999.90;;;1.00;99.90;;;;;;4983605;28;20051;-81
2022/12/15 14:15:45;;;;;;;1999.90;999.90;;;1.10;99.90;;;;;;5006383;28;20553;-81
2022/12/15 14:18:24;;;;;;;1999.90;999.90;;;1.00;99.90;;;;;;5000899;28;20493;-77
2022/12/15 14:20:49;;;;;;;1999.90;999.90;;;0.90;99.90;;;;;;5005646;28;21003;-89
2022/12/15 14:23:24;;;;;;;1999.90;999.90;;;0.80;99.90;;;;;;5012878;28;20102;-79
2022/12/15 14:26:07;;;;;;;1999.90;999.90;;;0.70;99.90;;;;;;4995414;28;20045;-80
2022/12/15 14:28:35;;;;;;;1999.90;999.90;;;0.70;99.90;;;;;;4998799;28;20050;-80
2022/12/15 14:31:22;;;;;;;1999.90;999.90;;;0.50;99.90;;;;;;5001620;28;20032;-80
2022/12/15 14:33:57;;;;;;;1999.90;999.90;;;0.40;99.90;;;;;;4985804;28;20093;-82
2022/12/15 14:36:23;;;;;;;1999.90;999.90;;;0.40;99.90;;;;;;4988799;28;20122;-81
2022/12/15 14:38:57;;;;;;;1999.90;999.90;;;0.40;99.90;;;;;;4989094;28;20043;-81
2022/12/15 14:41:25;;;;;;;1999.90;999.90;;;0.40;99.90;;;;;;4990800;28;20035;-79
2022/12/15 14:43:59;;;;;;;1999.90;999.90;;;0.30;99.90;;;;;;4991885;28;20497;-80
2022/12/15 14:46:26;;;;;;;1999.90;999.90;;;0.30;99.90;;;;;;4996971;28;20030;-80
2022/12/15 14:48:57;;;;;;;1999.90;999.90;;;0.20;99.90;;;;;;4979062;28;20043;-80
2022/12/15 14:51:24;;;;;;;1999.90;999.90;;;0.20;99.90;;;;;;4984664;28;20035;-81
2022/12/15 14:53:52;;;;;;;1999.90;999.90;;;0.10;99.90;;;;;;4989737;28;20146;-81
2022/12/15 14:56:21;;;;;;;1999.90;999.90;;;0.00;99.90;;;;;;4992081;28;20035;-81
2022/12/15 14:58:53;;;;;;;1999.90;999.90;;;-0.10;99.90;;;;;;4987703;28;20051;-82
2022/12/15 15:01:39;;;;;;;1999.90;999.90;;;-0.20;99.90;;;;;;4993842;28;20062;-79
2022/12/15 15:04:28;;;;;;;1999.90;999.90;;;-0.30;99.90;;;;;;4978514;28;20036;-80
2022/12/15 15:07:06;;;;;;;1999.90;999.90;;;-0.30;99.90;;;;;;4976244;28;20520;-80
2022/12/15 15:09:38;;;;;;;1999.90;999.90;;;-0.40;99.90;;;;;;4984703;28;20043;-80
2022/12/15 15:12:07;;;;;;;1999.90;999.90;;;-0.40;99.90;;;;;;4986546;28;20497;-80
2022/12/15 15:14:39;;;;;;;1999.90;999.90;;;-0.50;99.90;;;;;;4988992;28;20045;-81
2022/12/15 15:17:22;;;;;;;1999.90;999.90;;;-0.50;99.90;;;;;;4995257;28;20062;-82
2022/12/15 15:19:59;;;;;;;1999.90;999.90;;;-0.50;99.90;;;;;;4995840;28;20033;-81
2022/12/15 15:22:41;;;;;;;1999.90;999.90;;;-0.60;99.90;;;;;;4995986;28;20035;-80
2022/12/15 15:25:36;;;;;;;1999.90;999.90;;;-0.70;99.90;;;;;;4993744;28;20042;-81
2022/12/15 15:28:17;;;;;;;1999.90;999.90;;;-0.70;99.90;;;;;;4996014;28;20039;-81
2022/12/15 15:31:03;;;;;;;1999.90;999.90;;;-0.80;99.90;;;;;;5002552;28;20818;-80
2022/12/15 15:33:30;;;;;;;1999.90;999.90;;;-0.80;99.90;;;;;;5008859;23;20054;-81
2022/12/15 15:35:58;;;;;;;1999.90;999.90;;;-0.90;99.90;;;;;;4980199;28;20086;-81
2022/12/15 15:38:31;;;;;;;1999.90;999.90;;;-1.10;99.90;;;;;;4981275;28;20036;-81
2022/12/15 15:41:10;;;;;;;1999.90;999.90;;;-1.10;99.90;;;;;;4983664;28;20024;-81
2022/12/15 15:43:36;;;;;;;1999.90;999.90;;;-1.20;99.90;;;;;;4982002;28;20046;-78
2022/12/15 15:46:11;;;;;;;1999.90;999.90;;;-1.30;99.90;;;;;;4983954;28;20031;-78
2022/12/15 15:48:42;;;;;;;1999.90;999.90;;;-1.30;99.90;;;;;;4984800;28;20979;-80
2022/12/15 15:51:07;;;;;;;1999.90;999.90;;;-1.40;99.90;;;;;;4986272;28;20110;-80
2022/12/15 15:53:34;;;;;;;1999.90;999.90;;;-1.40;99.90;;;;;;4986874;28;20062;-80
2022/12/15 15:56:05;;;;;;;1999.90;999.90;;;-1.50;99.90;;;;;;4987028;28;20034;-81
2022/12/15 15:58:34;;;;;;;1999.90;999.90;;;-1.60;99.90;;;;;;4985059;28;20050;-82
2022/12/15 16:01:00;;;;;;;1999.90;999.90;;;-1.60;99.90;;;;;;4986962;28;20047;-80
2022/12/15 16:03:26;;;;;;;1999.90;999.90;;;-1.60;99.90;;;;;;4984526;28;20042;-81
2022/12/15 16:05:52;;;;;;;1999.90;999.90;;;-1.60;99.90;;;;;;4984769;28;20388;-81
2022/12/15 16:08:22;;;;;;;1999.90;999.90;;;-1.70;99.90;;;;;;4984994;28;20039;-81
2022/12/15 16:10:49;;;;;;;1999.90;999.90;;;-1.80;99.90;;;;;;4982842;28;20046;-82
2022/12/15 16:13:17;;;;;;;1999.90;999.90;;;-1.80;99.90;;;;;;4995508;28;20027;-81
2022/12/15 16:15:43;;;;;;;1999.90;999.90;;;-1.80;99.90;;;;;;4983104;28;20027;-80
2022/12/15 16:18:09;;;;;;;1999.90;999.90;;;-1.80;99.90;;;;;;4979640;28;20039;-82
2022/12/15 16:20:36;;;;;;;1999.90;999.90;;;-1.80;99.90;;;;;;4981067;28;20031;-82
2022/12/15 16:23:21;;;;;;;1999.90;999.90;;;-1.90;99.90;;;;;;4982896;28;20497;-81
2022/12/15 16:25:52;;;;;;;1999.90;999.90;;;-1.90;99.90;;;;;;4984981;28;20051;-82
2022/12/15 16:28:20;;;;;;;1999.90;999.90;;;-2.00;99.90;;;;;;4981494;28;20488;-80
2022/12/15 16:30:46;;;;;;;1999.90;999.90;;;-2.00;99.90;;;;;;4980418;28;20515;-80
2022/12/15 16:33:12;;;;;;;1999.90;999.90;;;-2.00;99.90;;;;;;4983459;28;20126;-82
2022/12/15 16:35:40;;;;;;;1999.90;999.90;;;-2.00;99.90;;;;;;4981179;28;20039;-80
2022/12/15 16:38:17;;;;;;;1999.90;999.90;;;-2.00;99.90;;;;;;4981480;28;20130;-82
2022/12/15 16:40:42;;;;;;;1999.90;999.90;;;-2.00;99.90;;;;;;4980125;28;20038;-81
2022/12/15 16:43:16;;;;;;;1999.90;999.90;;;-2.00;99.90;;;;;;4982042;28;20042;-80
2022/12/15 16:45:44;;;;;;;1999.90;999.90;;;-2.00;99.90;;;;;;4984072;28;20036;-80
2022/12/15 16:48:11;;;;;;;1999.90;999.90;;;-2.00;99.90;;;;;;4981634;28;20093;-81
2022/12/15 16:50:39;;;;;;;1999.90;999.90;;;-2.00;99.90;;;;;;4982215;28;20082;-78
2022/12/15 16:53:12;;;;;;;1999.90;999.90;;;-2.00;99.90;;;;;;4980566;28;20033;-79
2022/12/15 16:55:38;;;;;;;1999.90;999.90;;;-2.00;99.90;;;;;;4980361;28;20597;-81
2022/12/15 16:58:05;;;;;;;1999.90;999.90;;;-2.00;99.90;;;;;;4980103;28;20138;-83
2022/12/15 17:00:33;;;;;;;1999.90;999.90;;;-2.00;99.90;;;;;;4981910;28;20577;-81
2022/12/15 17:03:00;;;;;;;1999.90;999.90;;;-1.90;99.90;;;;;;4980489;28;20035;-83
2022/12/15 17:05:30;;;;;;;1999.90;999.90;;;-2.00;99.90;;;;;;4982221;28;20046;-82
2022/12/15 17:07:57;;;;;;;1999.90;999.90;;;-1.90;99.90;;;;;;4983209;28;20106;-81
2022/12/15 17:10:25;;;;;;;1999.90;999.90;;;-1.90;99.90;;;;;;4980822;28;20588;-82
2022/12/15 17:12:56;;;;;;;1999.90;999.90;;;-1.90;99.90;;;;;;4978852;28;20046;-82
2022/12/15 17:15:25;;;;;;;1999.90;999.90;;;-1.90;99.90;;;;;;4980111;28;20122;-83
2022/12/15 17:17:51;;;;;;;1999.90;999.90;;;-1.90;99.90;;;;;;4978462;28;20039;-81
2022/12/15 17:20:20;;;;;;;1999.90;999.90;;;-1.90;99.90;;;;;;4978449;28;20039;-80
2022/12/15 17:22:49;;;;;;;1999.90;999.90;;;-1.90;99.90;;;;;;4974747;28;20031;-82
2022/12/15 17:25:18;;;;;;;1999.90;999.90;;;-1.90;99.90;;;;;;4979132;28;20038;-81
2022/12/15 17:27:44;;;;;;;1999.90;999.90;;;-1.90;99.90;;;;;;4966417;28;20046;-81
2022/12/15 17:30:13;;;;;;;1999.90;999.90;;;-1.80;99.90;;;;;;4965856;28;20047;-83
2022/12/15 17:32:39;;;;;;;1999.90;999.90;;;-1.90;99.90;;;;;;4986527;28;20043;-81
2022/12/15 17:35:05;;;;;;;1999.90;999.90;;;-1.90;99.90;;;;;;4977575;28;20035;-81
2022/12/15 17:37:32;;;;;;;1999.90;999.90;;;-1.90;99.90;;;;;;4979211;28;20035;-82
2022/12/15 17:39:58;;;;;;;1999.90;999.90;;;-1.90;99.90;;;;;;4980255;28;20027;-83
2022/12/15 17:42:23;;;;;;;1999.90;999.90;;;-1.90;99.90;;;;;;4980161;28;20067;-82
2022/12/15 17:44:49;;;;;;;1999.90;999.90;;;-1.90;99.90;;;;;;4975596;28;20119;-81
2022/12/15 17:47:15;;;;;;;1999.90;999.90;;;-1.90;99.90;;;;;;4959690;28;20044;-81
2022/12/15 17:49:42;;;;;;;1999.90;999.90;;;-1.90;99.90;;;;;;4959992;28;20036;-82
2022/12/15 17:52:29;;;;;;;1999.90;999.90;;;-1.90;99.90;;;;;;4978892;28;20094;-80
2022/12/15 17:54:55;;;;;;;1999.90;999.90;;;-1.90;99.90;;;;;;4968368;28;20098;-81
2022/12/15 17:57:21;;;;;;;1999.90;999.90;;;-1.90;99.90;;;;;;4960447;28;20433;-80